createdAt,value
2023-12-23T00:00:45.445Z,0.56
2023-12-23T00:01:45.429Z,0.56
2023-12-23T00:02:45.486Z,0.57
2023-12-23T00:03:45.655Z,0.56
2023-12-23T00:04:45.665Z,0.56
2023-12-23T00:05:45.718Z,0.55
2023-12-23T00:06:45.710Z,0.56
2023-12-23T00:07:45.881Z,0.56
2023-12-23T00:08:45.881Z,0.56
2023-12-23T00:09:45.988Z,0.56
2023-12-23T00:10:45.990Z,0.55
2023-12-23T00:11:46.079Z,0.57
2023-12-23T00:12:46.141Z,0.55
2023-12-23T00:13:46.257Z,0.56
2023-12-23T00:14:46.242Z,0.54
2023-12-23T00:15:46.279Z,0.55
2023-12-23T00:16:46.351Z,0.55
2023-12-23T00:17:50.294Z,0.56
2023-12-23T00:18:46.509Z,0.56
2023-12-23T00:19:46.551Z,0.56
2023-12-23T00:20:46.662Z,0.56
2023-12-23T00:21:46.444Z,0.55
2023-12-23T00:22:46.449Z,0.58
2023-12-23T00:23:46.454Z,0.56
2023-12-23T00:24:46.443Z,0.56
2023-12-23T00:25:46.433Z,0.57
2023-12-23T00:26:46.433Z,0.58
2023-12-23T00:27:46.665Z,0.58
2023-12-23T00:28:46.532Z,0.59
2023-12-23T00:29:46.440Z,0.57
2023-12-23T00:30:46.541Z,0.56
2023-12-23T00:31:46.506Z,0.57
2023-12-23T00:32:46.528Z,0.55
2023-12-23T00:33:46.508Z,0.57
2023-12-23T00:34:46.493Z,0.57
2023-12-23T00:35:46.462Z,0.57
2023-12-23T00:36:46.471Z,0.58
2023-12-23T00:37:46.687Z,0.56
2023-12-23T00:38:46.510Z,0.58
2023-12-23T00:39:46.578Z,0.57
2023-12-23T00:40:46.681Z,0.56
2023-12-23T00:41:46.722Z,0.56
2023-12-23T00:42:46.785Z,0.56
2023-12-23T00:43:46.942Z,0.54
2023-12-23T00:44:46.947Z,0.55
2023-12-23T00:45:47.010Z,0.56
2023-12-23T00:46:47.022Z,0.56
2023-12-23T00:47:47.142Z,0.56
2023-12-23T00:48:47.238Z,0.56
2023-12-23T00:49:47.251Z,0.55
2023-12-23T00:50:47.287Z,0.56
2023-12-23T00:51:47.314Z,0.56
2023-12-23T00:52:47.434Z,0.55
2023-12-23T00:53:49.221Z,0.56
2023-12-23T00:54:47.521Z,0.56
2023-12-23T00:55:47.644Z,0.55
2023-12-23T00:56:47.640Z,0.56
2023-12-23T00:57:47.975Z,0.58
2023-12-23T00:58:47.824Z,0.56
2023-12-23T00:59:47.868Z,0.56
2023-12-23T01:00:47.885Z,0.57
2023-12-23T01:01:47.959Z,0.57
2023-12-23T01:02:48.001Z,0.58
2023-12-23T01:03:48.107Z,0.59
2023-12-23T01:04:48.160Z,0.57
2023-12-23T01:05:48.204Z,0.57
2023-12-23T01:06:48.281Z,0.57
2023-12-23T01:07:48.543Z,0.56
2023-12-23T01:08:48.388Z,0.58
2023-12-23T01:09:48.438Z,0.57
2023-12-23T01:10:48.478Z,0.57
2023-12-23T01:11:48.554Z,0.58
2023-12-23T01:12:48.628Z,0.59
2023-12-23T01:13:48.689Z,0.57
2023-12-23T01:14:48.735Z,0.56
2023-12-23T01:15:48.822Z,0.58
2023-12-23T01:16:48.915Z,0.58
2023-12-23T01:17:49.157Z,0.57
2023-12-23T01:18:49.094Z,0.56
2023-12-23T01:19:49.089Z,0.58
2023-12-23T01:20:49.077Z,0.59
2023-12-23T01:21:49.149Z,0.58
2023-12-23T01:22:49.221Z,0.57
2023-12-23T01:23:49.258Z,0.58
2023-12-23T01:24:49.349Z,0.58
2023-12-23T01:25:49.390Z,0.58
2023-12-23T01:26:49.404Z,0.57
2023-12-23T01:27:49.823Z,0.57
2023-12-23T01:28:49.579Z,0.57
2023-12-23T01:29:49.598Z,0.57
2023-12-23T01:30:49.704Z,0.58
2023-12-23T01:31:49.725Z,0.57
2023-12-23T01:32:49.812Z,0.58
2023-12-23T01:33:49.911Z,0.56
2023-12-23T01:34:49.882Z,0.59
2023-12-23T01:35:49.947Z,0.57
2023-12-23T01:36:49.989Z,0.59
2023-12-23T01:37:50.331Z,0.59
2023-12-23T01:38:50.111Z,0.59
2023-12-23T01:39:50.233Z,0.58
2023-12-23T01:40:50.251Z,0.58
2023-12-23T01:41:50.299Z,0.58
2023-12-23T01:42:50.302Z,0.58
2023-12-23T01:43:50.422Z,0.58
2023-12-23T01:44:50.460Z,0.58
2023-12-23T01:45:50.533Z,0.60
2023-12-23T01:46:50.581Z,0.59
2023-12-23T01:47:50.863Z,0.60
2023-12-23T01:48:50.656Z,0.59
2023-12-23T01:49:50.782Z,0.59
2023-12-23T01:50:50.757Z,0.58
2023-12-23T01:51:50.803Z,0.60
2023-12-23T01:52:51.015Z,0.60
2023-12-23T01:53:50.958Z,0.60
2023-12-23T01:54:50.989Z,0.59
2023-12-23T01:55:51.073Z,0.59
2023-12-23T01:56:51.121Z,0.60
2023-12-23T01:57:51.350Z,0.59
2023-12-23T01:58:51.237Z,0.58
2023-12-23T01:59:51.399Z,0.59
2023-12-23T02:00:51.397Z,0.61
2023-12-23T02:01:51.431Z,0.60
2023-12-23T02:02:51.902Z,0.58
2023-12-23T02:03:51.566Z,0.60
2023-12-23T02:04:51.600Z,0.60
2023-12-23T02:05:51.726Z,0.60
2023-12-23T02:06:51.628Z,0.60
2023-12-23T02:07:51.732Z,0.60
2023-12-23T02:08:51.738Z,0.60
2023-12-23T02:09:51.822Z,0.60
2023-12-23T02:10:51.876Z,0.60
2023-12-23T02:11:51.912Z,0.61
2023-12-23T02:12:58.578Z,0.59
2023-12-23T02:13:52.997Z,0.60
2023-12-23T02:14:51.958Z,0.60
2023-12-23T02:15:51.973Z,0.60
2023-12-23T02:16:51.975Z,0.59
2023-12-23T02:17:52.141Z,0.58
2023-12-23T02:18:52.021Z,0.61
2023-12-23T02:19:51.982Z,0.58
2023-12-23T02:20:51.929Z,0.60
2023-12-23T02:21:51.931Z,0.60
2023-12-23T02:22:52.241Z,0.60
2023-12-23T02:23:52.068Z,0.59
2023-12-23T02:24:51.944Z,0.60
2023-12-23T02:25:52.029Z,0.58
2023-12-23T02:26:52.063Z,0.60
2023-12-23T02:27:52.165Z,0.59
2023-12-23T02:28:52.164Z,0.59
2023-12-23T02:29:52.233Z,0.59
2023-12-23T02:30:52.291Z,0.60
2023-12-23T02:31:52.347Z,0.59
2023-12-23T02:32:52.640Z,0.59
2023-12-23T02:33:52.395Z,0.59
2023-12-23T02:34:52.460Z,0.59
2023-12-23T02:35:52.487Z,0.59
2023-12-23T02:36:52.541Z,0.59
2023-12-23T02:37:52.675Z,0.59
2023-12-23T02:38:52.669Z,0.59
2023-12-23T02:39:52.746Z,0.58
2023-12-23T02:40:52.803Z,0.59
2023-12-23T02:41:52.872Z,0.57
2023-12-23T02:42:53.163Z,0.58
2023-12-23T02:43:53.007Z,0.58
2023-12-23T02:44:53.142Z,0.58
2023-12-23T02:45:53.070Z,0.58
2023-12-23T02:46:53.178Z,0.57
2023-12-23T02:47:53.285Z,0.57
2023-12-23T02:48:53.293Z,0.57
2023-12-23T02:49:53.434Z,0.58
2023-12-23T02:50:53.361Z,0.58
2023-12-23T02:51:53.450Z,0.57
2023-12-23T02:52:54.015Z,0.57
2023-12-23T02:53:53.532Z,0.58
2023-12-23T02:54:53.582Z,0.57
2023-12-23T02:55:53.628Z,0.58
2023-12-23T02:56:53.675Z,0.56
2023-12-23T02:57:53.707Z,0.56
2023-12-23T02:58:55.534Z,0.55
2023-12-23T02:59:53.876Z,0.56
2023-12-23T03:00:53.934Z,0.55
2023-12-23T03:01:53.974Z,0.57
2023-12-23T03:02:54.068Z,0.55
2023-12-23T03:03:54.070Z,0.55
2023-12-23T03:04:54.229Z,0.55
2023-12-23T03:05:54.229Z,0.55
2023-12-23T03:06:54.299Z,0.52
2023-12-23T03:07:54.399Z,0.54
2023-12-23T03:08:54.447Z,0.53
2023-12-23T03:09:54.465Z,0.52
2023-12-23T03:10:54.578Z,0.52
2023-12-23T03:11:54.592Z,0.53
2023-12-23T03:12:54.715Z,0.51
2023-12-23T03:13:54.734Z,0.51
2023-12-23T03:14:54.783Z,0.51
2023-12-23T03:15:54.832Z,0.50
2023-12-23T03:16:54.898Z,0.51
2023-12-23T03:17:55.078Z,0.51
2023-12-23T03:18:55.116Z,0.53
2023-12-23T03:19:55.114Z,0.52
2023-12-23T03:20:55.174Z,0.51
2023-12-23T03:21:55.206Z,0.53
2023-12-23T03:22:55.349Z,0.51
2023-12-23T03:23:55.352Z,0.51
2023-12-23T03:24:55.437Z,0.52
2023-12-23T03:25:55.514Z,0.52
2023-12-23T03:26:55.537Z,0.52
2023-12-23T03:27:55.640Z,0.53
2023-12-23T03:28:55.732Z,0.51
2023-12-23T03:29:55.814Z,0.50
2023-12-23T03:30:55.860Z,0.51
2023-12-23T03:31:55.863Z,0.53
2023-12-23T03:32:55.985Z,0.54
2023-12-23T03:33:55.987Z,0.53
2023-12-23T03:34:56.169Z,0.53
2023-12-23T03:35:56.120Z,0.51
2023-12-23T03:36:56.197Z,0.51
2023-12-23T03:37:56.292Z,0.51
2023-12-23T03:38:56.333Z,0.52
2023-12-23T03:39:56.444Z,0.52
2023-12-23T03:40:56.540Z,0.51
2023-12-23T03:41:56.557Z,0.50
2023-12-23T03:42:56.592Z,0.52
2023-12-23T03:43:56.682Z,0.50
2023-12-23T03:44:56.728Z,0.52
2023-12-23T03:45:56.822Z,0.51
2023-12-23T03:46:56.893Z,0.52
2023-12-23T03:47:56.969Z,0.52
2023-12-23T03:48:57.069Z,0.54
2023-12-23T03:49:57.057Z,0.53
2023-12-23T03:50:57.132Z,0.53
2023-12-23T03:51:57.192Z,0.51
2023-12-23T03:52:57.284Z,0.52
2023-12-23T03:53:57.314Z,0.54
2023-12-23T03:54:57.420Z,0.52
2023-12-23T03:55:57.548Z,0.54
2023-12-23T03:56:57.510Z,0.53
2023-12-23T03:57:57.619Z,0.55
2023-12-23T03:58:57.689Z,0.54
2023-12-23T03:59:57.726Z,0.53
2023-12-23T04:00:57.830Z,0.54
2023-12-23T04:01:57.847Z,0.54
2023-12-23T04:02:57.913Z,0.55
2023-12-23T04:03:58.096Z,0.54
2023-12-23T04:04:58.108Z,0.54
2023-12-23T04:05:58.139Z,0.55
2023-12-23T04:06:58.241Z,0.56
2023-12-23T04:07:58.316Z,0.54
2023-12-23T04:08:58.318Z,0.55
2023-12-23T04:09:58.385Z,0.53
2023-12-23T04:10:58.535Z,0.55
2023-12-23T04:11:58.553Z,0.54
2023-12-23T04:12:58.706Z,0.56
2023-12-23T04:13:58.762Z,0.56
2023-12-23T04:14:58.779Z,0.56
2023-12-23T04:15:58.800Z,0.56
2023-12-23T04:16:58.901Z,0.56
2023-12-23T04:17:59.090Z,0.55
2023-12-23T04:18:59.072Z,0.56
2023-12-23T04:19:59.145Z,0.54
2023-12-23T04:20:59.169Z,0.56
2023-12-23T04:21:59.233Z,0.55
2023-12-23T04:22:59.315Z,0.52
2023-12-23T04:23:59.364Z,0.55
2023-12-23T04:24:59.490Z,0.55
2023-12-23T04:25:59.521Z,0.55
2023-12-23T04:26:59.582Z,0.56
2023-12-23T04:27:59.621Z,0.55
2023-12-23T04:28:59.733Z,0.55
2023-12-23T04:30:06.938Z,0.50
2023-12-23T04:31:14.255Z,0.50
2023-12-23T04:32:14.158Z,0.50
2023-12-23T04:33:14.211Z,0.50
2023-12-23T04:34:14.197Z,0.50
2023-12-23T04:35:14.307Z,0.50
2023-12-23T04:36:14.123Z,0.50
2023-12-23T04:37:14.095Z,0.50
2023-12-23T04:38:14.142Z,0.51
2023-12-23T04:40:19.959Z,0.50
2023-12-23T04:41:20.016Z,0.50
2023-12-23T04:42:19.902Z,0.50
2023-12-23T04:43:19.907Z,0.50
2023-12-23T04:44:20.016Z,0.50
2023-12-23T04:45:19.908Z,0.51
2023-12-23T04:46:19.907Z,0.51
2023-12-23T04:47:19.910Z,0.51
2023-12-23T04:48:19.927Z,0.51
2023-12-23T04:49:19.859Z,0.52
2023-12-23T04:50:19.949Z,0.52
2023-12-23T04:51:19.844Z,0.53
2023-12-23T04:52:19.837Z,0.54
2023-12-23T04:53:19.964Z,0.53
2023-12-23T04:54:19.823Z,0.51
2023-12-23T04:55:19.801Z,0.52
2023-12-23T04:56:19.938Z,0.52
2023-12-23T04:57:19.776Z,0.50
2023-12-23T04:58:19.802Z,0.52
2023-12-23T04:59:19.961Z,0.51
2023-12-23T05:00:19.931Z,0.51
2023-12-23T05:01:19.987Z,0.51
2023-12-23T05:02:20.031Z,0.53
2023-12-23T05:03:20.170Z,0.51
2023-12-23T05:04:20.133Z,0.51
2023-12-23T05:05:20.217Z,0.53
2023-12-23T05:06:20.295Z,0.53
2023-12-23T05:07:20.278Z,0.52
2023-12-23T05:08:20.332Z,0.52
2023-12-23T05:09:20.337Z,0.53
2023-12-23T05:10:20.413Z,0.52
2023-12-23T05:11:20.536Z,0.52
2023-12-23T05:12:20.476Z,0.54
2023-12-23T05:13:20.532Z,0.54
2023-12-23T05:14:20.622Z,0.52
2023-12-23T05:15:20.641Z,0.53
2023-12-23T05:16:20.667Z,0.52
2023-12-23T05:17:20.960Z,0.53
2023-12-23T05:18:20.814Z,0.53
2023-12-23T05:19:20.801Z,0.51
2023-12-23T05:20:20.883Z,0.51
2023-12-23T05:21:20.953Z,0.51
2023-12-23T05:22:20.979Z,0.51
2023-12-23T05:23:21.065Z,0.53
2023-12-23T05:24:21.050Z,0.52
2023-12-23T05:25:21.148Z,0.52
2023-12-23T05:26:21.235Z,0.50
2023-12-23T05:27:21.224Z,0.51
2023-12-23T05:28:21.296Z,0.51
2023-12-23T05:29:21.494Z,0.51
2023-12-23T05:30:21.427Z,0.51
2023-12-23T05:31:21.456Z,0.52
2023-12-23T05:32:21.549Z,0.52
2023-12-23T05:33:21.635Z,0.52
2023-12-23T05:34:21.624Z,0.51
2023-12-23T05:35:21.793Z,0.50
2023-12-23T05:36:21.697Z,0.52
2023-12-23T05:37:21.729Z,0.52
2023-12-23T05:38:21.853Z,0.51
2023-12-23T05:39:21.840Z,0.52
2023-12-23T05:40:21.932Z,0.52
2023-12-23T05:41:22.011Z,0.52
2023-12-23T05:42:21.982Z,0.53
2023-12-23T05:43:22.028Z,0.53
2023-12-23T05:44:22.252Z,0.52
2023-12-23T05:45:22.171Z,0.52
2023-12-23T05:46:22.168Z,0.53
2023-12-23T05:47:22.289Z,0.55
2023-12-23T05:48:22.367Z,0.52
2023-12-23T05:49:24.433Z,0.52
2023-12-23T05:50:22.649Z,0.53
2023-12-23T05:51:22.616Z,0.53
2023-12-23T05:52:22.685Z,0.53
2023-12-23T05:53:22.746Z,0.52
2023-12-23T05:54:22.754Z,0.52
2023-12-23T05:55:22.910Z,0.53
2023-12-23T05:56:22.986Z,0.52
2023-12-23T05:57:22.953Z,0.53
2023-12-23T05:58:22.987Z,0.51
2023-12-23T05:59:23.064Z,0.52
2023-12-23T06:00:23.082Z,0.51
2023-12-23T06:01:23.180Z,0.53
2023-12-23T06:02:23.302Z,0.54
2023-12-23T06:03:23.332Z,0.52
2023-12-23T06:04:23.374Z,0.53
2023-12-23T06:05:23.583Z,0.54
2023-12-23T06:06:23.454Z,0.54
2023-12-23T06:07:23.481Z,0.54
2023-12-23T06:08:23.594Z,0.53
2023-12-23T06:09:23.521Z,0.54
2023-12-23T06:10:23.619Z,0.53
2023-12-23T06:11:23.702Z,0.53
2023-12-23T06:12:23.702Z,0.53
2023-12-23T06:13:23.732Z,0.54
2023-12-23T06:14:23.829Z,0.55
2023-12-23T06:15:23.858Z,0.53
2023-12-23T06:16:23.892Z,0.54
2023-12-23T06:17:24.167Z,0.54
2023-12-23T06:18:24.082Z,0.54
2023-12-23T06:19:24.118Z,0.54
2023-12-23T06:20:24.165Z,0.54
2023-12-23T06:21:24.196Z,0.54
2023-12-23T06:22:24.227Z,0.56
2023-12-23T06:23:24.319Z,0.53
2023-12-23T06:24:24.329Z,0.54
2023-12-23T06:25:24.384Z,0.54
2023-12-23T06:26:24.457Z,0.55
2023-12-23T06:27:24.462Z,0.53
2023-12-23T06:28:24.563Z,0.53
2023-12-23T06:29:24.805Z,0.54
2023-12-23T06:30:24.817Z,0.54
2023-12-23T06:31:24.741Z,0.54
2023-12-23T06:32:24.987Z,0.54
2023-12-23T06:33:24.889Z,0.56
2023-12-23T06:34:24.850Z,0.51
2023-12-23T06:35:25.168Z,0.52
2023-12-23T06:36:24.995Z,0.55
2023-12-23T06:37:25.020Z,0.53
2023-12-23T06:38:25.147Z,0.52
2023-12-23T06:39:25.106Z,0.52
2023-12-23T06:40:25.206Z,0.52
2023-12-23T06:41:25.276Z,0.52
2023-12-23T06:42:25.275Z,0.52
2023-12-23T06:43:45.187Z,0.52
2023-12-23T06:44:26.343Z,0.52
2023-12-23T06:45:25.662Z,0.53
2023-12-23T06:46:25.312Z,0.53
2023-12-23T06:47:25.416Z,0.54
2023-12-23T06:48:25.385Z,0.54
2023-12-23T06:49:25.453Z,0.55
2023-12-23T06:50:25.316Z,0.56
2023-12-23T06:51:25.225Z,0.56
2023-12-23T06:52:25.216Z,0.55
2023-12-23T06:53:25.301Z,0.56
2023-12-23T06:54:25.331Z,0.55
2023-12-23T06:55:25.439Z,0.54
2023-12-23T06:56:25.485Z,0.54
2023-12-23T06:57:25.492Z,0.55
2023-12-23T06:58:25.538Z,0.55
2023-12-23T06:59:25.656Z,0.54
2023-12-23T07:00:25.644Z,0.53
2023-12-23T07:01:25.708Z,0.53
2023-12-23T07:02:25.736Z,0.55
2023-12-23T07:03:25.888Z,0.53
2023-12-23T07:04:25.847Z,0.55
2023-12-23T07:05:25.988Z,0.54
2023-12-23T07:06:25.955Z,0.55
2023-12-23T07:07:26.010Z,0.55
2023-12-23T07:08:26.053Z,0.55
2023-12-23T07:09:26.115Z,0.55
2023-12-23T07:10:26.134Z,0.54
2023-12-23T07:11:26.254Z,0.55
2023-12-23T07:12:26.242Z,0.53
2023-12-23T07:13:26.290Z,0.55
2023-12-23T07:14:26.386Z,0.54
2023-12-23T07:15:26.394Z,0.54
2023-12-23T07:16:26.422Z,0.54
2023-12-23T07:17:37.976Z,0.55
2023-12-23T07:18:27.587Z,0.54
2023-12-23T07:19:26.568Z,0.55
2023-12-23T07:20:26.543Z,0.55
2023-12-23T07:21:26.465Z,0.55
2023-12-23T07:22:26.401Z,0.54
2023-12-23T07:23:26.455Z,0.54
2023-12-23T07:24:26.447Z,0.55
2023-12-23T07:25:26.390Z,0.54
2023-12-23T07:26:26.433Z,0.55
2023-12-23T07:27:26.502Z,0.53
2023-12-23T07:28:26.533Z,0.52
2023-12-23T07:29:26.660Z,0.53
2023-12-23T07:30:26.638Z,0.54
2023-12-23T07:31:26.677Z,0.54
2023-12-23T07:32:26.968Z,0.56
2023-12-23T07:33:26.841Z,0.53
2023-12-23T07:34:26.854Z,0.54
2023-12-23T07:35:27.008Z,0.55
2023-12-23T07:36:26.965Z,0.54
2023-12-23T07:37:27.028Z,0.56
2023-12-23T07:38:27.122Z,0.53
2023-12-23T07:39:27.116Z,0.54
2023-12-23T07:40:30.627Z,0.54
2023-12-23T07:41:27.256Z,0.54
2023-12-23T07:42:27.186Z,0.55
2023-12-23T07:43:27.142Z,0.54
2023-12-23T07:44:27.145Z,0.54
2023-12-23T07:45:27.117Z,0.53
2023-12-23T07:46:27.110Z,0.54
2023-12-23T07:47:27.155Z,0.54
2023-12-23T07:48:27.215Z,0.55
2023-12-23T07:49:27.072Z,0.54
2023-12-23T07:50:27.217Z,0.53
2023-12-23T07:51:27.082Z,0.54
2023-12-23T07:52:27.079Z,0.54
2023-12-23T07:53:27.147Z,0.55
2023-12-23T07:54:27.156Z,0.54
2023-12-23T07:55:27.035Z,0.55
2023-12-23T07:56:27.127Z,0.55
2023-12-23T07:57:27.022Z,0.55
2023-12-23T07:58:27.018Z,0.55
2023-12-23T07:59:27.118Z,0.54
2023-12-23T08:00:27.143Z,0.55
2023-12-23T08:01:27.211Z,0.54
2023-12-23T08:02:27.328Z,0.55
2023-12-23T08:03:27.290Z,0.55
2023-12-23T08:04:27.332Z,0.55
2023-12-23T08:05:27.447Z,0.56
2023-12-23T08:06:27.479Z,0.55
2023-12-23T08:07:27.497Z,0.56
2023-12-23T08:08:27.573Z,0.54
2023-12-23T08:09:27.585Z,0.57
2023-12-23T08:10:27.610Z,0.54
2023-12-23T08:11:27.728Z,0.55
2023-12-23T08:12:27.728Z,0.56
2023-12-23T08:13:27.781Z,0.56
2023-12-23T08:14:27.872Z,0.56
2023-12-23T08:15:27.878Z,0.55
2023-12-23T08:16:27.968Z,0.55
2023-12-23T08:17:28.092Z,0.56
2023-12-23T08:18:28.218Z,0.56
2023-12-23T08:19:28.286Z,0.56
2023-12-23T08:20:28.239Z,0.54
2023-12-23T08:21:28.199Z,0.56
2023-12-23T08:22:28.276Z,0.56
2023-12-23T08:23:28.397Z,0.56
2023-12-23T08:24:28.393Z,0.55
2023-12-23T08:25:28.422Z,0.55
2023-12-23T08:26:28.544Z,0.55
2023-12-23T08:27:28.546Z,0.56
2023-12-23T08:28:28.650Z,0.56
2023-12-23T08:29:28.724Z,0.57
2023-12-23T08:30:28.734Z,0.57
2023-12-23T08:31:28.774Z,0.56
2023-12-23T08:32:28.959Z,0.57
2023-12-23T08:33:28.949Z,0.57
2023-12-23T08:34:28.955Z,0.57
2023-12-23T08:35:29.138Z,0.57
2023-12-23T08:36:29.052Z,0.56
2023-12-23T08:37:29.131Z,0.57
2023-12-23T08:38:29.276Z,0.57
2023-12-23T08:39:29.250Z,0.56
2023-12-23T08:40:29.290Z,0.57
2023-12-23T08:41:29.370Z,0.57
2023-12-23T08:42:29.403Z,0.55
2023-12-23T08:43:29.483Z,0.56
2023-12-23T08:44:29.587Z,0.56
2023-12-23T08:45:29.599Z,0.56
2023-12-23T08:46:29.657Z,0.56
2023-12-23T08:47:29.812Z,0.56
2023-12-23T08:48:29.923Z,0.56
2023-12-23T08:49:29.826Z,0.55
2023-12-23T08:50:30.055Z,0.57
2023-12-23T08:51:29.897Z,0.57
2023-12-23T08:52:29.944Z,0.56
2023-12-23T08:53:30.097Z,0.57
2023-12-23T08:54:30.044Z,0.58
2023-12-23T08:55:30.092Z,0.57
2023-12-23T08:56:30.166Z,0.57
2023-12-23T08:57:30.199Z,0.57
2023-12-23T08:58:30.209Z,0.56
2023-12-23T08:59:30.315Z,0.58
2023-12-23T09:00:30.332Z,0.55
2023-12-23T09:01:30.412Z,0.58
2023-12-23T09:02:30.489Z,0.58
2023-12-23T09:03:30.587Z,0.58
2023-12-23T09:04:30.579Z,0.58
2023-12-23T09:05:30.735Z,0.58
2023-12-23T09:06:30.771Z,0.58
2023-12-23T09:07:33.060Z,0.57
2023-12-23T09:08:30.943Z,0.58
2023-12-23T09:09:30.878Z,0.57
2023-12-23T09:10:30.927Z,0.59
2023-12-23T09:11:31.041Z,0.57
2023-12-23T09:12:31.067Z,0.58
2023-12-23T09:13:31.071Z,0.57
2023-12-23T09:14:31.301Z,0.56
2023-12-23T09:15:31.228Z,0.57
2023-12-23T09:16:31.287Z,0.57
2023-12-23T09:17:34.317Z,0.57
2023-12-23T09:18:31.415Z,0.57
2023-12-23T09:19:31.361Z,0.57
2023-12-23T09:20:31.428Z,0.57
2023-12-23T09:21:31.290Z,0.58
2023-12-23T09:22:31.301Z,0.59
2023-12-23T09:23:31.323Z,0.59
2023-12-23T09:24:31.290Z,0.58
2023-12-23T09:25:31.322Z,0.59
2023-12-23T09:26:31.305Z,0.59
2023-12-23T09:27:31.257Z,0.59
2023-12-23T09:28:31.235Z,0.59
2023-12-23T09:29:31.245Z,0.57
2023-12-23T09:30:31.283Z,0.60
2023-12-23T09:31:31.261Z,0.57
2023-12-23T09:32:31.330Z,0.58
2023-12-23T09:33:31.306Z,0.57
2023-12-23T09:34:31.232Z,0.58
2023-12-23T09:35:31.278Z,0.59
2023-12-23T09:36:31.202Z,0.57
2023-12-23T09:37:31.216Z,0.59
2023-12-23T09:38:31.208Z,0.57
2023-12-23T09:39:31.205Z,0.59
2023-12-23T09:40:31.201Z,0.59
2023-12-23T09:41:31.193Z,0.59
2023-12-23T09:42:31.203Z,0.59
2023-12-23T09:43:31.189Z,0.59
2023-12-23T09:44:31.205Z,0.59
2023-12-23T09:45:31.158Z,0.60
2023-12-23T09:46:31.136Z,0.58
2023-12-23T09:47:31.294Z,0.60
2023-12-23T09:48:31.735Z,0.60
2023-12-23T09:49:31.160Z,0.60
2023-12-23T09:50:31.214Z,0.61
2023-12-23T09:51:31.132Z,0.60
2023-12-23T09:52:31.138Z,0.60
2023-12-23T09:53:31.258Z,0.61
2023-12-23T09:54:31.224Z,0.62
2023-12-23T09:55:31.319Z,0.60
2023-12-23T09:56:31.420Z,0.60
2023-12-23T09:57:31.415Z,0.60
2023-12-23T09:58:31.491Z,0.60
2023-12-23T09:59:31.571Z,0.61
2023-12-23T10:00:31.634Z,0.60
2023-12-23T10:01:31.660Z,0.61
2023-12-23T10:02:31.743Z,0.60
2023-12-23T10:03:31.806Z,0.60
2023-12-23T10:04:31.841Z,0.61
2023-12-23T10:05:31.995Z,0.60
2023-12-23T10:06:32.116Z,0.60
2023-12-23T10:07:31.999Z,0.59
2023-12-23T10:08:32.133Z,0.59
2023-12-23T10:09:32.123Z,0.59
2023-12-23T10:10:32.153Z,0.59
2023-12-23T10:11:32.272Z,0.59
2023-12-23T10:12:32.269Z,0.60
2023-12-23T10:13:32.323Z,0.60
2023-12-23T10:14:32.386Z,0.60
2023-12-23T10:15:32.433Z,0.60
2023-12-23T10:16:32.494Z,0.59
2023-12-23T10:17:32.663Z,0.61
2023-12-23T10:18:32.652Z,0.61
2023-12-23T10:19:32.640Z,0.60
2023-12-23T10:20:32.732Z,0.62
2023-12-23T10:21:32.745Z,0.60
2023-12-23T10:22:32.816Z,0.60
2023-12-23T10:23:32.949Z,0.62
2023-12-23T10:24:32.938Z,0.60
2023-12-23T10:25:33.114Z,0.62
2023-12-23T10:26:33.055Z,0.61
2023-12-23T10:27:33.159Z,0.62
2023-12-23T10:28:33.238Z,0.61
2023-12-23T10:29:33.229Z,0.61
2023-12-23T10:30:33.289Z,0.60
2023-12-23T10:31:33.315Z,0.62
2023-12-23T10:32:33.415Z,0.60
2023-12-23T10:33:33.495Z,0.61
2023-12-23T10:34:33.489Z,0.60
2023-12-23T10:35:33.565Z,0.61
2023-12-23T10:36:33.603Z,0.60
2023-12-23T10:37:33.679Z,0.60
2023-12-23T10:38:33.739Z,0.61
2023-12-23T10:39:33.769Z,0.60
2023-12-23T10:40:33.806Z,0.60
2023-12-23T10:41:33.864Z,0.60
2023-12-23T10:42:33.955Z,0.59
2023-12-23T10:43:33.967Z,0.61
2023-12-23T10:44:34.032Z,0.60
2023-12-23T10:45:36.427Z,0.62
2023-12-23T10:46:34.093Z,0.61
2023-12-23T10:47:34.373Z,0.61
2023-12-23T10:48:34.212Z,0.61
2023-12-23T10:49:34.056Z,0.61
2023-12-23T10:50:34.081Z,0.60
2023-12-23T10:51:34.059Z,0.61
2023-12-23T10:52:34.046Z,0.60
2023-12-23T10:53:34.140Z,0.60
2023-12-23T10:54:34.064Z,0.58
2023-12-23T10:55:34.029Z,0.60
2023-12-23T10:56:34.134Z,0.59
2023-12-23T10:57:34.055Z,0.59
2023-12-23T10:58:34.019Z,0.60
2023-12-23T10:59:34.044Z,0.59
2023-12-23T11:00:34.114Z,0.60
2023-12-23T11:01:34.052Z,0.58
2023-12-23T11:02:34.018Z,0.60
2023-12-23T11:03:34.048Z,0.59
2023-12-23T11:04:34.020Z,0.59
2023-12-23T11:05:34.143Z,0.61
2023-12-23T11:06:34.040Z,0.59
2023-12-23T11:07:34.031Z,0.60
2023-12-23T11:08:34.168Z,0.60
2023-12-23T11:09:34.002Z,0.61
2023-12-23T11:10:33.967Z,0.60
2023-12-23T11:11:33.996Z,0.60
2023-12-23T11:12:34.024Z,0.59
2023-12-23T11:13:33.979Z,0.59
2023-12-23T11:14:33.960Z,0.59
2023-12-23T11:15:33.985Z,0.58
2023-12-23T11:16:33.948Z,0.58
2023-12-23T11:17:34.036Z,0.58
2023-12-23T11:18:33.987Z,0.59
2023-12-23T11:19:33.951Z,0.58
2023-12-23T11:20:34.006Z,0.59
2023-12-23T11:21:34.000Z,0.59
2023-12-23T11:22:34.057Z,0.59
2023-12-23T11:23:34.156Z,0.58
2023-12-23T11:24:34.174Z,0.58
2023-12-23T11:25:34.212Z,0.58
2023-12-23T11:26:34.343Z,0.59
2023-12-23T11:27:34.339Z,0.58
2023-12-23T11:28:34.440Z,0.59
2023-12-23T11:29:34.509Z,0.56
2023-12-23T11:30:34.512Z,0.59
2023-12-23T11:31:34.726Z,0.59
2023-12-23T11:32:34.779Z,0.58
2023-12-23T11:33:34.854Z,0.58
2023-12-23T11:34:34.777Z,0.57
2023-12-23T11:35:34.911Z,0.57
2023-12-23T11:36:34.887Z,0.56
2023-12-23T11:37:34.922Z,0.56
2023-12-23T11:38:35.059Z,0.57
2023-12-23T11:39:35.009Z,0.57
2023-12-23T11:40:35.086Z,0.56
2023-12-23T11:41:36.746Z,0.56
2023-12-23T11:42:35.192Z,0.56
2023-12-23T11:43:35.245Z,0.57
2023-12-23T11:44:35.379Z,0.56
2023-12-23T11:45:35.349Z,0.57
2023-12-23T11:46:35.426Z,0.57
2023-12-23T11:47:35.509Z,0.57
2023-12-23T11:48:35.682Z,0.57
2023-12-23T11:49:35.602Z,0.58
2023-12-23T11:50:35.723Z,0.57
2023-12-23T11:51:35.728Z,0.58
2023-12-23T11:52:35.817Z,0.58
2023-12-23T11:53:35.933Z,0.57
2023-12-23T11:54:35.869Z,0.58
2023-12-23T11:55:35.940Z,0.58
2023-12-23T11:56:36.030Z,0.59
2023-12-23T11:57:36.049Z,0.60
2023-12-23T11:58:36.101Z,0.60
2023-12-23T11:59:37.736Z,0.61
2023-12-23T12:00:36.244Z,0.59
2023-12-23T12:01:36.343Z,0.60
2023-12-23T12:02:36.355Z,0.60
2023-12-23T12:03:36.410Z,0.58
2023-12-23T12:04:36.480Z,0.60
2023-12-23T12:05:36.541Z,0.59
2023-12-23T12:06:36.595Z,0.58
2023-12-23T12:07:36.594Z,0.57
2023-12-23T12:08:36.696Z,0.57
2023-12-23T12:09:36.749Z,0.56
2023-12-23T12:10:36.774Z,0.56
2023-12-23T12:11:37.322Z,0.57
2023-12-23T12:12:36.928Z,0.56
2023-12-23T12:13:36.935Z,0.55
2023-12-23T12:14:37.054Z,0.56
2023-12-23T12:15:37.066Z,0.56
2023-12-23T12:16:37.102Z,0.56
2023-12-23T12:17:37.304Z,0.57
2023-12-23T12:18:37.322Z,0.56
2023-12-23T12:19:37.287Z,0.56
2023-12-23T12:20:37.324Z,0.56
2023-12-23T12:21:37.388Z,0.56
2023-12-23T12:22:37.464Z,0.56
2023-12-23T12:23:38.417Z,0.55
2023-12-23T12:24:37.575Z,0.56
2023-12-23T12:25:37.665Z,0.53
2023-12-23T12:26:37.728Z,0.54
2023-12-23T12:27:37.750Z,0.53
2023-12-23T12:28:37.792Z,0.54
2023-12-23T12:29:37.881Z,0.53
2023-12-23T12:30:37.947Z,0.54
2023-12-23T12:31:37.974Z,0.53
2023-12-23T12:32:38.085Z,0.53
2023-12-23T12:33:38.143Z,0.53
2023-12-23T12:34:38.170Z,0.52
2023-12-23T12:35:38.227Z,0.53
2023-12-23T12:36:38.302Z,0.53
2023-12-23T12:37:38.353Z,0.52
2023-12-23T12:38:38.461Z,0.52
2023-12-23T12:39:38.457Z,0.51
2023-12-23T12:40:38.526Z,0.52
2023-12-23T12:41:38.600Z,0.51
2023-12-23T12:42:38.634Z,0.51
2023-12-23T12:43:38.697Z,0.52
2023-12-23T12:44:38.727Z,0.51
2023-12-23T12:45:42.077Z,0.51
2023-12-23T12:46:38.819Z,0.51
2023-12-23T12:47:38.934Z,0.51
2023-12-23T12:48:38.816Z,0.51
2023-12-23T12:49:40.675Z,0.51
2023-12-23T12:50:38.800Z,0.51
2023-12-23T12:51:38.745Z,0.51
2023-12-23T12:52:38.727Z,0.51
2023-12-23T12:53:38.765Z,0.52
2023-12-23T12:54:38.687Z,0.52
2023-12-23T12:55:38.726Z,0.52
2023-12-23T12:56:38.751Z,0.52
2023-12-23T12:57:38.689Z,0.51
2023-12-23T12:58:38.643Z,0.51
2023-12-23T12:59:38.717Z,0.51
2023-12-23T13:00:38.781Z,0.53
2023-12-23T13:01:38.640Z,0.52
2023-12-23T13:02:38.697Z,0.51
2023-12-23T13:03:38.684Z,0.52
2023-12-23T13:04:41.269Z,0.51
2023-12-23T13:05:38.635Z,0.51
2023-12-23T13:06:38.672Z,0.51
2023-12-23T13:07:38.637Z,0.51
2023-12-23T13:08:38.599Z,0.51
2023-12-23T13:09:38.598Z,0.51
2023-12-23T13:10:38.615Z,0.52
2023-12-23T13:11:58.235Z,0.50
2023-12-23T13:12:58.262Z,0.50
2023-12-23T13:13:58.259Z,0.50
2023-12-23T13:14:58.269Z,0.50
2023-12-23T13:15:58.249Z,0.50
2023-12-23T13:16:58.285Z,0.50
2023-12-23T13:17:58.484Z,0.50
2023-12-23T13:19:00.703Z,0.51
2023-12-23T13:19:58.345Z,0.51
2023-12-23T13:20:58.298Z,0.51